Terminal Aerodrome Forecast
Issued by NWS

Home | Current Version | Previous Version | Text Only | Print | Product List | Glossary On
Versions: 1 2 3 4 5 6 7 8 9 10 11 12 13 14 15 16 17 18 19 20 21 22 23 24 25 26
000
FTUS45 KVEF 221726
TAFLAS
TAF
KLAS 221726Z 2218/2318 22016G26KT P6SM FEW090
     FM230100 26011KT P6SM SCT090
     FM230300 33014G24KT P6SM BKN090
     FM230700 33010KT P6SM SKC=

USA.gov is the U.S. government's official web portal to all federal, state and local government web resources and services.